sensor_id;sensor_type;location;lat;lon;timestamp;temperature;humidity
17421;DHT22;8828;48.800;9.540;2023-06-01T00:00:33;17.10;91.60
17421;DHT22;8828;48.800;9.540;2023-06-01T00:03:01;17.00;91.90
17421;DHT22;8828;48.800;9.540;2023-06-01T00:05:30;17.00;92.20
17421;DHT22;8828;48.800;9.540;2023-06-01T00:07:58;16.90;92.30
17421;DHT22;8828;48.800;9.540;2023-06-01T00:10:27;16.90;92.50
17421;DHT22;8828;48.800;9.540;2023-06-01T00:12:55;16.90;92.50
17421;DHT22;8828;48.800;9.540;2023-06-01T00:15:23;16.80;92.60
17421;DHT22;8828;48.800;9.540;2023-06-01T00:17:51;16.80;92.70
17421;DHT22;8828;48.800;9.540;2023-06-01T00:20:19;16.90;92.80
17421;DHT22;8828;48.800;9.540;2023-06-01T00:22:47;16.90;92.80
17421;DHT22;8828;48.800;9.540;2023-06-01T00:25:15;16.80;92.80
17421;DHT22;8828;48.800;9.540;2023-06-01T00:27:44;16.80;92.80
17421;DHT22;8828;48.800;9.540;2023-06-01T00:30:13;16.70;92.70
17421;DHT22;8828;48.800;9.540;2023-06-01T00:32:41;16.70;92.80
17421;DHT22;8828;48.800;9.540;2023-06-01T00:35:09;16.60;93.00
17421;DHT22;8828;48.800;9.540;2023-06-01T00:37:38;16.60;93.20
17421;DHT22;8828;48.800;9.540;2023-06-01T00:40:06;16.50;93.40
17421;DHT22;8828;48.800;9.540;2023-06-01T00:42:34;16.50;93.30
17421;DHT22;8828;48.800;9.540;2023-06-01T00:45:05;16.50;93.30
17421;DHT22;8828;48.800;9.540;2023-06-01T00:47:38;16.50;93.20
17421;DHT22;8828;48.800;9.540;2023-06-01T00:50:07;16.40;93.00
17421;DHT22;8828;48.800;9.540;2023-06-01T00:52:37;16.40;93.00
17421;DHT22;8828;48.800;9.540;2023-06-01T00:55:06;16.40;93.00
17421;DHT22;8828;48.800;9.540;2023-06-01T00:57:35;16.40;93.00
17421;DHT22;8828;48.800;9.540;2023-06-01T01:00:05;16.40;93.00
17421;DHT22;8828;48.800;9.540;2023-06-01T01:02:36;16.40;93.10
17421;DHT22;8828;48.800;9.540;2023-06-01T01:05:06;16.40;93.20
17421;DHT22;8828;48.800;9.540;2023-06-01T01:07:42;16.30;93.20
17421;DHT22;8828;48.800;9.540;2023-06-01T01:10:22;16.40;93.30
17421;DHT22;8828;48.800;9.540;2023-06-01T01:13:00;16.30;93.40
17421;DHT22;8828;48.800;9.540;2023-06-01T01:15:35;16.30;93.60
17421;DHT22;8828;48.800;9.540;2023-06-01T01:18:11;16.30;93.60
17421;DHT22;8828;48.800;9.540;2023-06-01T01:20:47;16.30;93.70
17421;DHT22;8828;48.800;9.540;2023-06-01T01:23:38;16.30;93.70
17421;DHT22;8828;48.800;9.540;2023-06-01T01:26:17;16.30;93.90
17421;DHT22;8828;48.800;9.540;2023-06-01T01:28:52;16.20;93.90
17421;DHT22;8828;48.800;9.540;2023-06-01T01:31:23;16.20;93.90
17421;DHT22;8828;48.800;9.540;2023-06-01T01:33:54;16.10;93.70
17421;DHT22;8828;48.800;9.540;2023-06-01T01:36:23;16.00;93.50
17421;DHT22;8828;48.800;9.540;2023-06-01T01:38:51;15.90;93.50
17421;DHT22;8828;48.800;9.540;2023-06-01T01:41:20;15.90;93.60
17421;DHT22;8828;48.800;9.540;2023-06-01T01:43:50;15.80;93.70
17421;DHT22;8828;48.800;9.540;2023-06-01T01:46:22;15.80;93.80
17421;DHT22;8828;48.800;9.540;2023-06-01T01:49:02;15.90;94.00
17421;DHT22;8828;48.800;9.540;2023-06-01T01:51:36;15.80;94.00
17421;DHT22;8828;48.800;9.540;2023-06-01T01:54:05;15.90;94.00
17421;DHT22;8828;48.800;9.540;2023-06-01T01:56:35;15.90;94.10
17421;DHT22;8828;48.800;9.540;2023-06-01T01:59:05;15.80;94.10
17421;DHT22;8828;48.800;9.540;2023-06-01T02:01:33;15.70;94.20
17421;DHT22;8828;48.800;9.540;2023-06-01T02:04:03;15.70;94.30
17421;DHT22;8828;48.800;9.540;2023-06-01T02:06:31;15.70;94.40
17421;DHT22;8828;48.800;9.540;2023-06-01T02:08:59;15.70;94.40
17421;DHT22;8828;48.800;9.540;2023-06-01T02:11:27;15.70;94.50
17421;DHT22;8828;48.800;9.540;2023-06-01T02:13:55;15.70;94.60
17421;DHT22;8828;48.800;9.540;2023-06-01T02:16:24;15.70;94.70
17421;DHT22;8828;48.800;9.540;2023-06-01T02:18:53;15.60;94.70
17421;DHT22;8828;48.800;9.540;2023-06-01T02:21:24;15.50;94.70
17421;DHT22;8828;48.800;9.540;2023-06-01T02:23:52;15.50;94.80
17421;DHT22;8828;48.800;9.540;2023-06-01T02:26:20;15.50;94.90
17421;DHT22;8828;48.800;9.540;2023-06-01T02:28:49;15.50;95.30
17421;DHT22;8828;48.800;9.540;2023-06-01T02:31:16;15.50;94.90
17421;DHT22;8828;48.800;9.540;2023-06-01T02:33:46;15.40;94.90
17421;DHT22;8828;48.800;9.540;2023-06-01T02:36:14;15.40;95.10
17421;DHT22;8828;48.800;9.540;2023-06-01T02:38:43;15.30;95.30
17421;DHT22;8828;48.800;9.540;2023-06-01T02:41:11;15.20;95.40
17421;DHT22;8828;48.800;9.540;2023-06-01T02:43:39;15.20;95.40
17421;DHT22;8828;48.800;9.540;2023-06-01T02:46:07;15.20;95.50
17421;DHT22;8828;48.800;9.540;2023-06-01T02:48:35;15.10;95.70
17421;DHT22;8828;48.800;9.540;2023-06-01T02:51:05;15.20;95.70
17421;DHT22;8828;48.800;9.540;2023-06-01T02:53:33;15.20;95.70
17421;DHT22;8828;48.800;9.540;2023-06-01T02:56:01;15.10;95.80
17421;DHT22;8828;48.800;9.540;2023-06-01T02:58:29;15.20;95.80
17421;DHT22;8828;48.800;9.540;2023-06-01T03:00:57;15.20;95.80
17421;DHT22;8828;48.800;9.540;2023-06-01T03:03:25;15.10;95.90
17421;DHT22;8828;48.800;9.540;2023-06-01T03:05:54;15.10;96.00
17421;DHT22;8828;48.800;9.540;2023-06-01T03:08:23;15.10;96.00
17421;DHT22;8828;48.800;9.540;2023-06-01T03:10:52;15.10;96.00
17421;DHT22;8828;48.800;9.540;2023-06-01T03:13:20;15.20;96.00
17421;DHT22;8828;48.800;9.540;2023-06-01T03:15:48;15.20;96.00
17421;DHT22;8828;48.800;9.540;2023-06-01T03:18:17;15.20;96.10
17421;DHT22;8828;48.800;9.540;2023-06-01T03:20:45;15.20;96.10
17421;DHT22;8828;48.800;9.540;2023-06-01T03:23:14;15.10;96.20
17421;DHT22;8828;48.800;9.540;2023-06-01T03:25:43;15.10;96.30
17421;DHT22;8828;48.800;9.540;2023-06-01T03:28:11;15.00;96.80
17421;DHT22;8828;48.800;9.540;2023-06-01T03:30:39;15.00;96.50
17421;DHT22;8828;48.800;9.540;2023-06-01T03:33:09;15.00;96.70
17421;DHT22;8828;48.800;9.540;2023-06-01T03:35:37;15.00;96.80
17421;DHT22;8828;48.800;9.540;2023-06-01T03:38:05;14.90;96.90
17421;DHT22;8828;48.800;9.540;2023-06-01T03:40:33;14.90;97.00
17421;DHT22;8828;48.800;9.540;2023-06-01T03:43:03;14.90;97.10
17421;DHT22;8828;48.800;9.540;2023-06-01T03:45:31;14.90;97.30
17421;DHT22;8828;48.800;9.540;2023-06-01T03:47:58;14.90;97.30
17421;DHT22;8828;48.800;9.540;2023-06-01T03:50:26;15.00;97.30
17421;DHT22;8828;48.800;9.540;2023-06-01T03:52:55;14.90;97.20
17421;DHT22;8828;48.800;9.540;2023-06-01T03:55:23;14.90;97.40
17421;DHT22;8828;48.800;9.540;2023-06-01T03:57:50;14.80;97.50
17421;DHT22;8828;48.800;9.540;2023-06-01T04:00:20;14.80;97.60
17421;DHT22;8828;48.800;9.540;2023-06-01T04:02:51;14.80;97.70
17421;DHT22;8828;48.800;9.540;2023-06-01T04:05:21;14.80;97.80
17421;DHT22;8828;48.800;9.540;2023-06-01T04:07:50;14.80;97.80
17421;DHT22;8828;48.800;9.540;2023-06-01T04:10:19;14.80;97.80
17421;DHT22;8828;48.800;9.540;2023-06-01T04:12:48;14.80;98.20
17421;DHT22;8828;48.800;9.540;2023-06-01T04:15:17;14.80;97.90
17421;DHT22;8828;48.800;9.540;2023-06-01T04:17:47;14.80;98.10
17421;DHT22;8828;48.800;9.540;2023-06-01T04:20:16;14.80;98.20
17421;DHT22;8828;48.800;9.540;2023-06-01T04:22:45;14.80;98.20
17421;DHT22;8828;48.800;9.540;2023-06-01T04:25:14;14.90;98.30
17421;DHT22;8828;48.800;9.540;2023-06-01T04:27:46;14.90;98.10
17421;DHT22;8828;48.800;9.540;2023-06-01T04:30:15;14.90;98.10
17421;DHT22;8828;48.800;9.540;2023-06-01T04:32:44;14.90;98.20
17421;DHT22;8828;48.800;9.540;2023-06-01T04:35:16;14.80;98.20
17421;DHT22;8828;48.800;9.540;2023-06-01T04:37:44;14.90;98.30
17421;DHT22;8828;48.800;9.540;2023-06-01T04:40:13;14.90;98.30
17421;DHT22;8828;48.800;9.540;2023-06-01T04:42:42;14.90;98.40
17421;DHT22;8828;48.800;9.540;2023-06-01T04:45:12;15.00;98.40
17421;DHT22;8828;48.800;9.540;2023-06-01T04:47:42;15.00;98.50
17421;DHT22;8828;48.800;9.540;2023-06-01T04:50:12;15.00;98.50
17421;DHT22;8828;48.800;9.540;2023-06-01T04:52:43;15.10;98.40
17421;DHT22;8828;48.800;9.540;2023-06-01T04:55:12;15.10;98.40
17421;DHT22;8828;48.800;9.540;2023-06-01T04:57:40;15.10;98.40
17421;DHT22;8828;48.800;9.540;2023-06-01T05:00:11;15.20;98.50
17421;DHT22;8828;48.800;9.540;2023-06-01T05:02:41;15.10;98.70
17421;DHT22;8828;48.800;9.540;2023-06-01T05:05:11;15.20;98.70
17421;DHT22;8828;48.800;9.540;2023-06-01T05:07:40;15.30;98.70
17421;DHT22;8828;48.800;9.540;2023-06-01T05:10:11;15.30;98.80
17421;DHT22;8828;48.800;9.540;2023-06-01T05:12:40;15.30;98.90
17421;DHT22;8828;48.800;9.540;2023-06-01T05:15:09;15.30;98.80
17421;DHT22;8828;48.800;9.540;2023-06-01T05:17:38;15.30;99.10
17421;DHT22;8828;48.800;9.540;2023-06-01T05:20:07;15.30;99.30
17421;DHT22;8828;48.800;9.540;2023-06-01T05:22:36;15.30;99.40
17421;DHT22;8828;48.800;9.540;2023-06-01T05:25:04;15.40;99.50
17421;DHT22;8828;48.800;9.540;2023-06-01T05:27:35;15.40;99.30
17421;DHT22;8828;48.800;9.540;2023-06-01T05:30:04;15.50;99.40
17421;DHT22;8828;48.800;9.540;2023-06-01T05:32:33;15.50;99.20
17421;DHT22;8828;48.800;9.540;2023-06-01T05:35:01;15.50;99.20
17421;DHT22;8828;48.800;9.540;2023-06-01T05:37:31;15.50;99.30
17421;DHT22;8828;48.800;9.540;2023-06-01T05:39:59;15.60;99.50
17421;DHT22;8828;48.800;9.540;2023-06-01T05:42:27;15.60;99.50
17421;DHT22;8828;48.800;9.540;2023-06-01T05:44:57;15.70;99.50
17421;DHT22;8828;48.800;9.540;2023-06-01T05:47:25;15.70;99.40
17421;DHT22;8828;48.800;9.540;2023-06-01T05:49:53;15.80;99.60
17421;DHT22;8828;48.800;9.540;2023-06-01T05:52:22;15.80;99.40
17421;DHT22;8828;48.800;9.540;2023-06-01T05:54:50;15.90;99.40
17421;DHT22;8828;48.800;9.540;2023-06-01T05:57:20;15.90;99.20
17421;DHT22;8828;48.800;9.540;2023-06-01T05:59:48;16.00;99.10
17421;DHT22;8828;48.800;9.540;2023-06-01T06:02:18;16.10;99.10
17421;DHT22;8828;48.800;9.540;2023-06-01T06:04:46;16.20;99.00
17421;DHT22;8828;48.800;9.540;2023-06-01T06:07:14;16.30;98.80
17421;DHT22;8828;48.800;9.540;2023-06-01T06:09:42;16.30;98.60
17421;DHT22;8828;48.800;9.540;2023-06-01T06:12:10;16.40;98.40
17421;DHT22;8828;48.800;9.540;2023-06-01T06:14:38;16.40;98.40
17421;DHT22;8828;48.800;9.540;2023-06-01T06:17:08;16.50;98.20
17421;DHT22;8828;48.800;9.540;2023-06-01T06:19:37;16.60;98.00
17421;DHT22;8828;48.800;9.540;2023-06-01T06:22:05;16.70;98.30
17421;DHT22;8828;48.800;9.540;2023-06-01T06:24:33;16.80;98.10
17421;DHT22;8828;48.800;9.540;2023-06-01T06:27:02;16.80;98.20
17421;DHT22;8828;48.800;9.540;2023-06-01T06:29:30;16.90;98.10
17421;DHT22;8828;48.800;9.540;2023-06-01T06:31:58;17.00;98.30
17421;DHT22;8828;48.800;9.540;2023-06-01T06:34:26;17.10;98.00
17421;DHT22;8828;48.800;9.540;2023-06-01T06:37:02;17.20;98.00
17421;DHT22;8828;48.800;9.540;2023-06-01T06:39:30;17.20;97.60
17421;DHT22;8828;48.800;9.540;2023-06-01T06:41:58;17.30;97.60
17421;DHT22;8828;48.800;9.540;2023-06-01T06:44:27;17.30;97.30
17421;DHT22;8828;48.800;9.540;2023-06-01T06:46:58;17.40;97.20
17421;DHT22;8828;48.800;9.540;2023-06-01T06:49:28;17.50;97.00
17421;DHT22;8828;48.800;9.540;2023-06-01T06:51:56;17.60;97.20
17421;DHT22;8828;48.800;9.540;2023-06-01T06:54:26;17.70;97.20
17421;DHT22;8828;48.800;9.540;2023-06-01T06:56:54;17.70;97.00
17421;DHT22;8828;48.800;9.540;2023-06-01T06:59:22;17.80;97.20
17421;DHT22;8828;48.800;9.540;2023-06-01T07:01:50;17.90;97.30
17421;DHT22;8828;48.800;9.540;2023-06-01T07:04:18;18.00;97.50
17421;DHT22;8828;48.800;9.540;2023-06-01T07:06:47;18.00;96.60
17421;DHT22;8828;48.800;9.540;2023-06-01T07:09:15;18.10;96.70
17421;DHT22;8828;48.800;9.540;2023-06-01T07:11:44;18.20;96.60
17421;DHT22;8828;48.800;9.540;2023-06-01T07:14:14;18.30;96.40
17421;DHT22;8828;48.800;9.540;2023-06-01T07:16:42;18.40;96.00
17421;DHT22;8828;48.800;9.540;2023-06-01T07:19:12;18.40;95.90
17421;DHT22;8828;48.800;9.540;2023-06-01T07:21:40;18.50;95.20
17421;DHT22;8828;48.800;9.540;2023-06-01T07:24:09;18.60;95.20
17421;DHT22;8828;48.800;9.540;2023-06-01T07:26:37;18.70;95.40
17421;DHT22;8828;48.800;9.540;2023-06-01T07:29:06;18.80;95.10
17421;DHT22;8828;48.800;9.540;2023-06-01T07:31:34;18.80;94.50
17421;DHT22;8828;48.800;9.540;2023-06-01T07:34:02;18.90;94.30
17421;DHT22;8828;48.800;9.540;2023-06-01T07:36:30;19.00;94.40
17421;DHT22;8828;48.800;9.540;2023-06-01T07:39:03;19.10;94.20
17421;DHT22;8828;48.800;9.540;2023-06-01T07:41:33;19.20;94.00
17421;DHT22;8828;48.800;9.540;2023-06-01T07:44:01;19.20;93.80
17421;DHT22;8828;48.800;9.540;2023-06-01T07:46:30;19.30;94.00
17421;DHT22;8828;48.800;9.540;2023-06-01T07:48:58;19.40;94.10
17421;DHT22;8828;48.800;9.540;2023-06-01T07:51:27;19.50;93.70
17421;DHT22;8828;48.800;9.540;2023-06-01T07:53:55;19.60;93.50
17421;DHT22;8828;48.800;9.540;2023-06-01T07:56:24;19.70;93.30
17421;DHT22;8828;48.800;9.540;2023-06-01T07:58:53;19.80;93.20
17421;DHT22;8828;48.800;9.540;2023-06-01T08:01:21;19.90;92.80
17421;DHT22;8828;48.800;9.540;2023-06-01T08:03:51;20.00;92.70
17421;DHT22;8828;48.800;9.540;2023-06-01T08:06:19;20.00;92.40
17421;DHT22;8828;48.800;9.540;2023-06-01T08:08:49;20.10;92.90
17421;DHT22;8828;48.800;9.540;2023-06-01T08:11:17;20.20;92.50
17421;DHT22;8828;48.800;9.540;2023-06-01T08:13:45;20.30;92.20
17421;DHT22;8828;48.800;9.540;2023-06-01T08:16:14;20.50;92.00
17421;DHT22;8828;48.800;9.540;2023-06-01T08:18:42;20.50;91.60
17421;DHT22;8828;48.800;9.540;2023-06-01T08:21:11;20.70;91.70
17421;DHT22;8828;48.800;9.540;2023-06-01T08:23:39;20.80;92.20
17421;DHT22;8828;48.800;9.540;2023-06-01T08:26:07;20.90;92.30
17421;DHT22;8828;48.800;9.540;2023-06-01T08:28:35;21.00;91.60
17421;DHT22;8828;48.800;9.540;2023-06-01T08:31:04;21.00;90.90
17421;DHT22;8828;48.800;9.540;2023-06-01T08:33:33;21.10;91.00
17421;DHT22;8828;48.800;9.540;2023-06-01T08:36:01;21.10;91.20
17421;DHT22;8828;48.800;9.540;2023-06-01T08:38:31;21.20;91.40
17421;DHT22;8828;48.800;9.540;2023-06-01T08:41:03;21.30;90.80
17421;DHT22;8828;48.800;9.540;2023-06-01T08:43:32;21.30;90.80
17421;DHT22;8828;48.800;9.540;2023-06-01T08:46:05;21.40;91.20
17421;DHT22;8828;48.800;9.540;2023-06-01T08:48:34;21.50;91.20
17421;DHT22;8828;48.800;9.540;2023-06-01T08:51:02;21.60;91.30
17421;DHT22;8828;48.800;9.540;2023-06-01T08:53:32;21.60;91.40
17421;DHT22;8828;48.800;9.540;2023-06-01T08:56:01;21.70;91.00
17421;DHT22;8828;48.800;9.540;2023-06-01T08:58:30;21.80;91.30
17421;DHT22;8828;48.800;9.540;2023-06-01T09:00:59;21.90;90.80
17421;DHT22;8828;48.800;9.540;2023-06-01T09:03:27;21.90;90.40
17421;DHT22;8828;48.800;9.540;2023-06-01T09:05:55;22.00;90.00
17421;DHT22;8828;48.800;9.540;2023-06-01T09:08:24;22.00;91.00
17421;DHT22;8828;48.800;9.540;2023-06-01T09:10:53;22.20;91.70
17421;DHT22;8828;48.800;9.540;2023-06-01T09:13:32;22.30;90.50
17421;DHT22;8828;48.800;9.540;2023-06-01T09:16:00;22.30;89.80
17421;DHT22;8828;48.800;9.540;2023-06-01T09:18:28;22.40;89.70
17421;DHT22;8828;48.800;9.540;2023-06-01T09:21:09;22.50;89.60
17421;DHT22;8828;48.800;9.540;2023-06-01T09:23:38;22.50;90.00
17421;DHT22;8828;48.800;9.540;2023-06-01T09:26:08;22.50;90.10
17421;DHT22;8828;48.800;9.540;2023-06-01T09:28:52;22.60;90.30
17421;DHT22;8828;48.800;9.540;2023-06-01T09:31:39;22.70;90.70
17421;DHT22;8828;48.800;9.540;2023-06-01T09:34:09;22.80;90.30
17421;DHT22;8828;48.800;9.540;2023-06-01T09:36:38;22.90;90.40
17421;DHT22;8828;48.800;9.540;2023-06-01T09:39:07;23.00;90.20
17421;DHT22;8828;48.800;9.540;2023-06-01T09:41:47;23.00;90.20
17421;DHT22;8828;48.800;9.540;2023-06-01T09:44:23;23.10;89.80
17421;DHT22;8828;48.800;9.540;2023-06-01T09:46:52;23.10;88.40
17421;DHT22;8828;48.800;9.540;2023-06-01T09:49:22;23.20;88.00
17421;DHT22;8828;48.800;9.540;2023-06-01T09:51:52;23.20;88.70
17421;DHT22;8828;48.800;9.540;2023-06-01T09:54:28;23.30;88.00
17421;DHT22;8828;48.800;9.540;2023-06-01T09:56:59;23.30;88.60
17421;DHT22;8828;48.800;9.540;2023-06-01T09:59:40;23.40;88.60
17421;DHT22;8828;48.800;9.540;2023-06-01T10:02:12;23.50;88.80
17421;DHT22;8828;48.800;9.540;2023-06-01T10:04:44;23.60;89.30
17421;DHT22;8828;48.800;9.540;2023-06-01T10:07:14;23.70;88.10
17421;DHT22;8828;48.800;9.540;2023-06-01T10:09:45;23.80;85.80
17421;DHT22;8828;48.800;9.540;2023-06-01T10:12:14;23.90;86.20
17421;DHT22;8828;48.800;9.540;2023-06-01T10:14:43;24.00;87.20
17421;DHT22;8828;48.800;9.540;2023-06-01T10:17:11;24.00;87.10
17421;DHT22;8828;48.800;9.540;2023-06-01T10:19:41;24.00;86.50
17421;DHT22;8828;48.800;9.540;2023-06-01T10:22:09;24.10;86.70
17421;DHT22;8828;48.800;9.540;2023-06-01T10:24:39;24.10;86.00
17421;DHT22;8828;48.800;9.540;2023-06-01T10:27:17;24.10;84.50
17421;DHT22;8828;48.800;9.540;2023-06-01T10:29:48;24.10;83.40
17421;DHT22;8828;48.800;9.540;2023-06-01T10:32:41;24.20;83.10
17421;DHT22;8828;48.800;9.540;2023-06-01T10:35:10;24.20;85.50
17421;DHT22;8828;48.800;9.540;2023-06-01T10:38:23;24.30;84.20
17421;DHT22;8828;48.800;9.540;2023-06-01T10:40:51;24.40;82.00
17421;DHT22;8828;48.800;9.540;2023-06-01T10:43:42;24.50;80.90
17421;DHT22;8828;48.800;9.540;2023-06-01T10:46:35;24.50;80.90
17421;DHT22;8828;48.800;9.540;2023-06-01T10:49:04;24.60;80.60
17421;DHT22;8828;48.800;9.540;2023-06-01T10:51:32;24.70;82.50
17421;DHT22;8828;48.800;9.540;2023-06-01T10:57:20;24.80;79.40
17421;DHT22;8828;48.800;9.540;2023-06-01T11:00:13;24.80;77.00
17421;DHT22;8828;48.800;9.540;2023-06-01T11:02:53;25.00;79.70
17421;DHT22;8828;48.800;9.540;2023-06-01T11:05:35;25.00;81.10
17421;DHT22;8828;48.800;9.540;2023-06-01T11:08:04;25.10;79.00
17421;DHT22;8828;48.800;9.540;2023-06-01T11:10:54;25.10;77.30
17421;DHT22;8828;48.800;9.540;2023-06-01T11:13:23;25.10;78.20
17421;DHT22;8828;48.800;9.540;2023-06-01T11:16:28;25.10;75.60
17421;DHT22;8828;48.800;9.540;2023-06-01T11:18:59;25.20;75.60
17421;DHT22;8828;48.800;9.540;2023-06-01T11:21:28;25.30;76.00
17421;DHT22;8828;48.800;9.540;2023-06-01T11:23:58;25.40;76.30
17421;DHT22;8828;48.800;9.540;2023-06-01T11:26:31;25.40;76.30
17421;DHT22;8828;48.800;9.540;2023-06-01T11:29:13;25.50;76.70
17421;DHT22;8828;48.800;9.540;2023-06-01T11:31:44;25.50;75.40
17421;DHT22;8828;48.800;9.540;2023-06-01T11:34:14;25.60;76.70
17421;DHT22;8828;48.800;9.540;2023-06-01T11:36:44;25.60;75.30
17421;DHT22;8828;48.800;9.540;2023-06-01T11:39:19;25.60;73.50
17421;DHT22;8828;48.800;9.540;2023-06-01T11:41:52;25.70;72.70
17421;DHT22;8828;48.800;9.540;2023-06-01T11:44:20;25.70;74.50
17421;DHT22;8828;48.800;9.540;2023-06-01T11:46:56;26.20;73.20
17421;DHT22;8828;48.800;9.540;2023-06-01T11:49:25;27.00;70.30
17421;DHT22;8828;48.800;9.540;2023-06-01T11:51:54;27.80;69.70
17421;DHT22;8828;48.800;9.540;2023-06-01T11:54:25;28.50;65.70
17421;DHT22;8828;48.800;9.540;2023-06-01T11:56:55;29.20;65.40
17421;DHT22;8828;48.800;9.540;2023-06-01T11:59:25;29.70;62.40
17421;DHT22;8828;48.800;9.540;2023-06-01T12:01:56;29.90;62.00
17421;DHT22;8828;48.800;9.540;2023-06-01T12:04:24;30.10;63.10
17421;DHT22;8828;48.800;9.540;2023-06-01T12:07:04;30.40;62.30
17421;DHT22;8828;48.800;9.540;2023-06-01T12:09:34;30.50;63.20
17421;DHT22;8828;48.800;9.540;2023-06-01T12:12:02;30.80;62.30
17421;DHT22;8828;48.800;9.540;2023-06-01T12:14:31;30.80;61.30
17421;DHT22;8828;48.800;9.540;2023-06-01T12:17:01;30.80;60.70
17421;DHT22;8828;48.800;9.540;2023-06-01T12:19:31;30.90;60.00
17421;DHT22;8828;48.800;9.540;2023-06-01T12:21:59;30.90;58.50
17421;DHT22;8828;48.800;9.540;2023-06-01T12:24:30;30.80;60.90
17421;DHT22;8828;48.800;9.540;2023-06-01T12:27:02;30.90;60.30
17421;DHT22;8828;48.800;9.540;2023-06-01T12:29:37;30.90;60.50
17421;DHT22;8828;48.800;9.540;2023-06-01T12:32:07;31.00;59.10
17421;DHT22;8828;48.800;9.540;2023-06-01T12:34:37;31.00;58.80
17421;DHT22;8828;48.800;9.540;2023-06-01T12:37:16;30.90;57.40
17421;DHT22;8828;48.800;9.540;2023-06-01T12:39:51;30.90;58.90
17421;DHT22;8828;48.800;9.540;2023-06-01T12:42:33;31.00;59.30
17421;DHT22;8828;48.800;9.540;2023-06-01T12:45:03;31.10;58.50
17421;DHT22;8828;48.800;9.540;2023-06-01T12:47:37;31.10;59.40
17421;DHT22;8828;48.800;9.540;2023-06-01T12:50:06;31.20;58.80
17421;DHT22;8828;48.800;9.540;2023-06-01T12:52:35;31.20;58.60
17421;DHT22;8828;48.800;9.540;2023-06-01T12:55:04;31.10;57.80
17421;DHT22;8828;48.800;9.540;2023-06-01T12:57:33;31.00;57.80
17421;DHT22;8828;48.800;9.540;2023-06-01T13:00:02;31.10;56.90
17421;DHT22;8828;48.800;9.540;2023-06-01T13:02:31;31.20;56.50
17421;DHT22;8828;48.800;9.540;2023-06-01T13:05:02;31.20;55.90
17421;DHT22;8828;48.800;9.540;2023-06-01T13:07:31;31.20;56.40
17421;DHT22;8828;48.800;9.540;2023-06-01T13:10:00;31.20;56.00
17421;DHT22;8828;48.800;9.540;2023-06-01T13:12:28;31.10;58.80
17421;DHT22;8828;48.800;9.540;2023-06-01T13:14:56;31.20;57.20
17421;DHT22;8828;48.800;9.540;2023-06-01T13:17:24;31.30;56.40
17421;DHT22;8828;48.800;9.540;2023-06-01T13:19:53;31.40;57.40
17421;DHT22;8828;48.800;9.540;2023-06-01T13:22:22;31.60;56.90
17421;DHT22;8828;48.800;9.540;2023-06-01T13:24:50;31.80;55.20
17421;DHT22;8828;48.800;9.540;2023-06-01T13:27:31;31.80;56.60
17421;DHT22;8828;48.800;9.540;2023-06-01T13:30:00;31.70;55.30
17421;DHT22;8828;48.800;9.540;2023-06-01T13:32:29;31.60;55.30
17421;DHT22;8828;48.800;9.540;2023-06-01T13:34:57;31.40;55.20
17421;DHT22;8828;48.800;9.540;2023-06-01T13:37:26;31.40;55.40
17421;DHT22;8828;48.800;9.540;2023-06-01T13:39:54;31.30;54.50
17421;DHT22;8828;48.800;9.540;2023-06-01T13:42:22;31.20;54.50
17421;DHT22;8828;48.800;9.540;2023-06-01T13:44:50;31.20;54.60
17421;DHT22;8828;48.800;9.540;2023-06-01T13:47:18;31.20;55.10
17421;DHT22;8828;48.800;9.540;2023-06-01T13:49:47;31.30;55.50
17421;DHT22;8828;48.800;9.540;2023-06-01T13:52:15;31.30;55.20
17421;DHT22;8828;48.800;9.540;2023-06-01T13:54:45;31.20;54.10
17421;DHT22;8828;48.800;9.540;2023-06-01T13:57:13;31.20;54.30
17421;DHT22;8828;48.800;9.540;2023-06-01T13:59:41;31.30;54.70
17421;DHT22;8828;48.800;9.540;2023-06-01T14:02:09;31.40;53.80
17421;DHT22;8828;48.800;9.540;2023-06-01T14:04:38;31.40;53.50
17421;DHT22;8828;48.800;9.540;2023-06-01T14:07:06;31.20;53.00
17421;DHT22;8828;48.800;9.540;2023-06-01T14:09:34;30.60;53.90
17421;DHT22;8828;48.800;9.540;2023-06-01T14:12:04;30.00;54.50
17421;DHT22;8828;48.800;9.540;2023-06-01T14:14:32;29.50;54.70
17421;DHT22;8828;48.800;9.540;2023-06-01T14:17:00;29.00;55.70
17421;DHT22;8828;48.800;9.540;2023-06-01T14:19:28;28.60;58.10
17421;DHT22;8828;48.800;9.540;2023-06-01T14:21:56;28.30;59.40
17421;DHT22;8828;48.800;9.540;2023-06-01T14:24:24;28.00;60.90
17421;DHT22;8828;48.800;9.540;2023-06-01T14:26:52;27.70;61.30
17421;DHT22;8828;48.800;9.540;2023-06-01T14:29:21;27.50;61.80
17421;DHT22;8828;48.800;9.540;2023-06-01T14:31:49;27.40;61.60
17421;DHT22;8828;48.800;9.540;2023-06-01T14:34:17;27.20;61.40
17421;DHT22;8828;48.800;9.540;2023-06-01T14:36:45;27.00;62.50
17421;DHT22;8828;48.800;9.540;2023-06-01T14:39:13;26.90;62.90
17421;DHT22;8828;48.800;9.540;2023-06-01T14:41:41;26.80;64.10
17421;DHT22;8828;48.800;9.540;2023-06-01T14:44:11;26.80;64.50
17421;DHT22;8828;48.800;9.540;2023-06-01T14:46:40;26.60;63.60
17421;DHT22;8828;48.800;9.540;2023-06-01T14:49:08;26.60;64.50
17421;DHT22;8828;48.800;9.540;2023-06-01T14:51:36;26.50;65.00
17421;DHT22;8828;48.800;9.540;2023-06-01T14:54:04;26.50;65.40
17421;DHT22;8828;48.800;9.540;2023-06-01T14:56:32;26.40;65.60
17421;DHT22;8828;48.800;9.540;2023-06-01T14:59:00;26.40;65.90
17421;DHT22;8828;48.800;9.540;2023-06-01T15:01:28;26.40;66.30
17421;DHT22;8828;48.800;9.540;2023-06-01T15:03:57;26.30;66.10
17421;DHT22;8828;48.800;9.540;2023-06-01T15:06:25;26.30;66.60
17421;DHT22;8828;48.800;9.540;2023-06-01T15:08:53;26.30;66.60
17421;DHT22;8828;48.800;9.540;2023-06-01T15:11:21;26.20;67.00
17421;DHT22;8828;48.800;9.540;2023-06-01T15:13:49;26.20;66.60
17421;DHT22;8828;48.800;9.540;2023-06-01T15:16:17;26.20;66.70
17421;DHT22;8828;48.800;9.540;2023-06-01T15:18:45;26.20;66.10
17421;DHT22;8828;48.800;9.540;2023-06-01T15:21:14;26.20;66.20
17421;DHT22;8828;48.800;9.540;2023-06-01T15:23:42;26.20;66.30
17421;DHT22;8828;48.800;9.540;2023-06-01T15:26:09;26.10;67.10
17421;DHT22;8828;48.800;9.540;2023-06-01T15:28:37;26.20;66.70
17421;DHT22;8828;48.800;9.540;2023-06-01T15:31:05;26.10;66.00
17421;DHT22;8828;48.800;9.540;2023-06-01T15:33:33;26.10;65.60
17421;DHT22;8828;48.800;9.540;2023-06-01T15:36:01;26.20;64.80
17421;DHT22;8828;48.800;9.540;2023-06-01T15:38:31;26.20;64.50
17421;DHT22;8828;48.800;9.540;2023-06-01T15:40:59;26.10;64.30
17421;DHT22;8828;48.800;9.540;2023-06-01T15:43:27;26.10;64.20
17421;DHT22;8828;48.800;9.540;2023-06-01T15:45:56;26.10;64.40
17421;DHT22;8828;48.800;9.540;2023-06-01T15:48:24;26.10;64.80
17421;DHT22;8828;48.800;9.540;2023-06-01T15:50:52;26.10;64.70
17421;DHT22;8828;48.800;9.540;2023-06-01T15:53:19;26.10;64.60
17421;DHT22;8828;48.800;9.540;2023-06-01T15:55:49;26.10;64.90
17421;DHT22;8828;48.800;9.540;2023-06-01T15:58:17;26.10;64.20
17421;DHT22;8828;48.800;9.540;2023-06-01T16:00:45;26.10;63.90
17421;DHT22;8828;48.800;9.540;2023-06-01T16:03:32;26.10;63.50
17421;DHT22;8828;48.800;9.540;2023-06-01T16:06:00;26.10;63.90